createdAt,value
2022-12-24T00:01:06.535Z,15.95
2022-12-24T00:03:34.403Z,16.05
2022-12-24T00:06:05.999Z,17.50
2022-12-24T00:08:33.041Z,19.10
2022-12-24T00:11:00.171Z,19.70
2022-12-24T00:13:27.104Z,19.98
2022-12-24T00:15:53.876Z,21.55
2022-12-24T00:18:20.543Z,19.67
2022-12-24T00:20:48.989Z,20.40
2022-12-24T00:23:16.891Z,19.63
2022-12-24T00:25:43.807Z,19.27
2022-12-24T00:28:11.216Z,19.67
2022-12-24T00:30:39.238Z,25.80
2022-12-24T00:33:06.029Z,28.00
2022-12-24T00:35:37.218Z,28.00
2022-12-24T00:38:04.105Z,24.77
2022-12-24T00:40:31.767Z,22.60
2022-12-24T00:42:58.952Z,22.60
2022-12-24T00:45:28.103Z,24.33
2022-12-24T00:47:55.146Z,23.65
2022-12-24T00:50:21.986Z,23.92
2022-12-24T00:52:48.739Z,22.48
2022-12-24T00:55:15.574Z,24.15
2022-12-24T00:57:42.310Z,22.40
2022-12-24T01:00:09.988Z,24.13
2022-12-24T01:02:36.725Z,23.25
2022-12-24T01:05:12.949Z,23.13
2022-12-24T01:07:44.955Z,24.73
2022-12-24T01:10:15.039Z,24.83
2022-12-24T01:12:41.964Z,24.63
2022-12-24T01:15:10.096Z,23.90
2022-12-24T01:17:37.264Z,23.88
2022-12-24T01:20:06.357Z,24.05
2022-12-24T01:22:33.231Z,24.02
2022-12-24T01:25:00.228Z,24.50
2022-12-24T01:27:27.036Z,24.33
2022-12-24T01:29:53.813Z,24.05
2022-12-24T01:32:21.428Z,25.30
2022-12-24T01:34:48.181Z,25.52
2022-12-24T01:37:14.964Z,22.88
2022-12-24T01:39:41.714Z,24.83
2022-12-24T01:42:38.847Z,25.38
2022-12-24T01:45:40.352Z,25.77
2022-12-24T01:48:34.877Z,23.83
2022-12-24T01:51:11.246Z,25.10
2022-12-24T01:53:39.333Z,23.33
2022-12-24T01:56:07.376Z,24.00
2022-12-24T01:58:36.584Z,24.52
2022-12-24T02:01:04.385Z,19.45
2022-12-24T02:03:31.393Z,20.38
2022-12-24T02:06:00.528Z,15.73
2022-12-24T02:08:40.305Z,14.23
2022-12-24T02:11:13.027Z,14.93
2022-12-24T02:13:40.697Z,15.50
2022-12-24T02:16:51.862Z,13.77
2022-12-24T02:19:42.661Z,13.55
2022-12-24T02:22:20.921Z,12.68
2022-12-24T02:25:00.569Z,12.65
2022-12-24T02:27:48.254Z,13.38
2022-12-24T02:30:38.973Z,14.05
2022-12-24T02:33:20.408Z,13.18
2022-12-24T02:36:08.364Z,15.88
2022-12-24T02:38:42.232Z,20.00
2022-12-24T02:41:20.323Z,20.23
2022-12-24T02:43:49.721Z,17.92
2022-12-24T02:46:21.184Z,16.48
2022-12-24T02:48:49.074Z,16.30
2022-12-24T02:51:16.132Z,15.65
2022-12-24T02:53:43.295Z,14.55
2022-12-24T02:56:16.168Z,15.90
2022-12-24T02:58:59.747Z,14.95
2022-12-24T03:01:36.962Z,16.27
2022-12-24T03:04:39.554Z,15.85
2022-12-24T03:07:23.727Z,15.63
2022-12-24T03:10:01.157Z,15.63
2022-12-24T03:12:36.724Z,16.17
2022-12-24T03:15:05.460Z,18.25
2022-12-24T03:17:37.539Z,17.88
2022-12-24T03:20:06.775Z,16.85
2022-12-24T03:22:35.298Z,18.67
2022-12-24T03:25:02.553Z,17.23
2022-12-24T03:27:32.905Z,17.33
2022-12-24T03:29:59.947Z,17.13
2022-12-24T03:32:31.661Z,16.98
2022-12-24T03:34:58.657Z,14.93
2022-12-24T03:37:28.133Z,17.00
2022-12-24T03:39:54.835Z,18.13
2022-12-24T03:42:21.706Z,17.80
2022-12-24T03:44:48.409Z,16.45
2022-12-24T03:47:15.202Z,17.30
2022-12-24T03:49:42.023Z,17.38
2022-12-24T03:52:08.783Z,16.80
2022-12-24T03:54:35.567Z,17.20
2022-12-24T03:57:02.563Z,18.35
2022-12-24T03:59:29.269Z,16.90
2022-12-24T04:01:56.186Z,18.40
2022-12-24T04:04:23.007Z,21.10
2022-12-24T04:06:49.657Z,23.67
2022-12-24T04:09:16.601Z,20.33
2022-12-24T04:11:43.416Z,20.90
2022-12-24T04:14:10.212Z,17.80
2022-12-24T04:16:37.101Z,17.25
2022-12-24T04:19:04.024Z,19.15
2022-12-24T04:21:30.675Z,24.95
2022-12-24T04:23:57.392Z,20.50
2022-12-24T04:26:24.091Z,21.42
2022-12-24T04:28:50.914Z,20.83
2022-12-24T04:31:18.166Z,20.45
2022-12-24T04:33:45.725Z,19.58
2022-12-24T04:36:17.568Z,17.30
2022-12-24T04:38:45.312Z,18.38
2022-12-24T04:41:22.750Z,18.83
2022-12-24T04:43:51.674Z,17.98
2022-12-24T04:46:21.938Z,17.50
2022-12-24T04:48:50.707Z,20.35
2022-12-24T04:51:18.774Z,19.55
2022-12-24T04:53:45.991Z,20.70
2022-12-24T04:56:18.288Z,19.95
2022-12-24T04:58:45.951Z,19.88
2022-12-24T05:01:15.306Z,18.15
2022-12-24T05:03:42.443Z,17.90
2022-12-24T05:06:13.160Z,18.27
2022-12-24T05:08:40.024Z,18.15
2022-12-24T05:11:07.652Z,21.05
2022-12-24T05:13:44.214Z,20.00
2022-12-24T05:16:14.469Z,19.13
2022-12-24T05:18:41.431Z,19.42
2022-12-24T05:21:10.287Z,17.60
2022-12-24T05:23:56.761Z,16.92
2022-12-24T05:26:36.737Z,17.17
2022-12-24T05:29:05.168Z,18.20
2022-12-24T05:31:33.727Z,19.45
2022-12-24T05:34:01.162Z,22.52
2022-12-24T05:36:28.279Z,20.73
2022-12-24T05:38:55.057Z,21.52
2022-12-24T05:41:22.152Z,21.25
2022-12-24T05:43:49.223Z,19.58
2022-12-24T05:46:19.811Z,20.00
2022-12-24T05:48:47.713Z,18.92
2022-12-24T05:51:19.904Z,20.30
2022-12-24T05:53:47.862Z,19.80
2022-12-24T05:56:21.462Z,18.13
2022-12-24T05:58:48.741Z,18.67
2022-12-24T06:01:15.777Z,21.83
2022-12-24T06:03:42.814Z,21.27
2022-12-24T06:06:13.499Z,23.33
2022-12-24T06:08:42.435Z,24.83
2022-12-24T06:11:12.347Z,26.15
2022-12-24T06:13:40.124Z,26.13
2022-12-24T06:16:09.194Z,28.63
2022-12-24T06:18:37.240Z,27.67
2022-12-24T06:21:05.317Z,22.35
2022-12-24T06:23:35.322Z,20.48
2022-12-24T06:26:03.146Z,17.90
2022-12-24T06:28:34.064Z,20.35
2022-12-24T06:31:03.317Z,23.60
2022-12-24T06:33:44.457Z,22.33
2022-12-24T06:36:27.183Z,23.30
2022-12-24T06:38:55.196Z,21.92
2022-12-24T06:41:22.848Z,22.55
2022-12-24T06:43:52.718Z,24.52
2022-12-24T06:46:20.548Z,23.17
2022-12-24T06:48:48.138Z,25.30
2022-12-24T06:51:16.920Z,24.27
2022-12-24T06:53:43.860Z,21.25
2022-12-24T06:56:13.101Z,21.88
2022-12-24T06:58:40.992Z,23.23
2022-12-24T07:01:11.083Z,23.48
2022-12-24T07:03:38.327Z,25.58
2022-12-24T07:06:06.134Z,26.73
2022-12-24T07:08:34.281Z,22.33
2022-12-24T07:11:01.248Z,24.05
2022-12-24T07:13:28.242Z,25.88
2022-12-24T07:16:14.222Z,26.95
2022-12-24T07:18:40.983Z,27.40
2022-12-24T07:21:07.846Z,23.10
2022-12-24T07:23:40.287Z,26.90
2022-12-24T07:26:07.720Z,30.70
2022-12-24T07:34:04.319Z,29.00
2022-12-24T07:36:31.205Z,27.08
2022-12-24T07:38:58.180Z,28.70
2022-12-24T07:41:30.129Z,26.92
2022-12-24T07:47:02.115Z,30.55
2022-12-24T07:49:34.373Z,25.23
2022-12-24T07:52:27.958Z,26.10
2022-12-24T07:54:55.156Z,26.02
2022-12-24T07:57:30.992Z,24.38
2022-12-24T07:59:58.000Z,23.38
2022-12-24T08:02:24.895Z,23.23
2022-12-24T08:04:51.781Z,24.50
2022-12-24T08:07:23.006Z,26.35
2022-12-24T08:09:50.372Z,29.63
2022-12-24T08:12:17.114Z,31.25
2022-12-24T08:14:43.951Z,32.05
2022-12-24T08:17:10.764Z,30.35
2022-12-24T08:19:37.678Z,31.90
2022-12-24T08:22:04.662Z,30.90
2022-12-24T08:24:34.196Z,29.10
2022-12-24T08:27:01.203Z,31.52
2022-12-24T08:29:28.677Z,27.45
2022-12-24T08:32:06.023Z,28.90
2022-12-24T08:34:32.913Z,29.52
2022-12-24T08:37:00.151Z,30.98
2022-12-24T08:39:26.934Z,32.80
2022-12-24T08:41:57.514Z,33.92
2022-12-24T08:44:24.287Z,29.88
2022-12-24T08:46:51.087Z,33.85
2022-12-24T08:49:18.512Z,33.30
2022-12-24T08:54:26.048Z,26.73
2022-12-24T08:56:52.722Z,24.83
2022-12-24T08:59:20.015Z,27.75
2022-12-24T09:01:47.143Z,25.88
2022-12-24T09:04:14.147Z,26.58
2022-12-24T09:06:40.944Z,25.98
2022-12-24T09:09:07.998Z,29.75
2022-12-24T09:11:35.675Z,26.92
2022-12-24T09:14:02.552Z,28.35
2022-12-24T09:16:29.567Z,29.58
2022-12-24T09:18:57.876Z,28.15
2022-12-24T09:21:24.582Z,25.20
2022-12-24T09:23:51.399Z,27.20
2022-12-24T09:26:21.365Z,23.75
2022-12-24T09:28:48.747Z,27.25
2022-12-24T09:31:16.560Z,24.23
2022-12-24T09:33:45.236Z,24.02
2022-12-24T09:36:12.289Z,26.55
2022-12-24T09:38:40.401Z,31.48
2022-12-24T09:41:25.869Z,33.35
2022-12-24T09:44:07.438Z,29.95
2022-12-24T09:46:42.250Z,33.03
2022-12-24T09:49:20.602Z,36.65
2022-12-24T09:52:08.335Z,34.25
2022-12-24T09:54:49.662Z,31.77
2022-12-24T09:57:40.764Z,31.35
2022-12-24T10:00:21.868Z,29.27
2022-12-24T10:02:48.755Z,28.02
2022-12-24T10:05:19.087Z,29.17
2022-12-24T10:08:06.583Z,30.73
2022-12-24T10:10:36.317Z,29.50
2022-12-24T10:13:18.124Z,31.80
2022-12-24T10:15:58.860Z,28.73
2022-12-24T10:18:59.503Z,26.30
2022-12-24T10:21:36.988Z,25.05
2022-12-24T10:24:29.570Z,27.10
2022-12-24T10:27:11.282Z,25.67
2022-12-24T10:29:43.816Z,22.73
2022-12-24T10:32:10.514Z,23.05
2022-12-24T10:34:44.952Z,23.55
2022-12-24T10:37:17.428Z,20.85
2022-12-24T10:39:44.225Z,21.85
2022-12-24T10:42:13.668Z,21.83
2022-12-24T10:44:40.558Z,19.70
2022-12-24T10:47:10.742Z,19.88
2022-12-24T10:49:47.687Z,24.20
2022-12-24T10:52:17.969Z,23.42
2022-12-24T10:55:23.152Z,21.67
2022-12-24T10:58:06.176Z,22.48
2022-12-24T11:00:36.327Z,22.48
2022-12-24T11:03:12.370Z,22.23
2022-12-24T11:05:40.725Z,21.77
2022-12-24T11:08:26.302Z,22.55
2022-12-24T11:11:01.076Z,20.92
2022-12-24T11:13:41.094Z,20.27
2022-12-24T11:16:31.294Z,20.75
2022-12-24T11:19:04.764Z,21.55
2022-12-24T11:21:41.107Z,20.27
2022-12-24T11:24:28.089Z,20.65
2022-12-24T11:26:55.137Z,18.88
2022-12-24T11:29:27.285Z,21.80
2022-12-24T11:32:17.001Z,26.20
2022-12-24T11:34:44.620Z,23.55
2022-12-24T11:37:16.292Z,23.02
2022-12-24T11:39:50.973Z,23.55
2022-12-24T11:42:40.818Z,25.08
2022-12-24T11:45:24.887Z,32.65
2022-12-24T11:47:52.415Z,37.85
2022-12-24T11:50:23.266Z,38.17
2022-12-24T11:53:03.227Z,39.88
2022-12-24T11:55:51.430Z,40.92
2022-12-24T11:58:36.342Z,39.47
2022-12-24T12:01:16.709Z,37.97
2022-12-24T12:03:49.814Z,37.08
2022-12-24T12:06:42.688Z,34.95
2022-12-24T12:09:18.401Z,32.80
2022-12-24T12:11:48.600Z,30.00
2022-12-24T12:14:21.679Z,26.27
2022-12-24T12:17:12.819Z,25.00
2022-12-24T12:20:14.174Z,21.23
2022-12-24T12:22:43.927Z,19.38
2022-12-24T12:25:22.527Z,25.40
2022-12-24T12:27:55.466Z,22.13
2022-12-24T12:30:24.542Z,20.40
2022-12-24T12:33:20.529Z,21.83
2022-12-24T12:35:49.068Z,18.00
2022-12-24T12:38:23.126Z,18.48
2022-12-24T12:41:16.794Z,16.60
2022-12-24T12:44:10.856Z,22.50
2022-12-24T12:46:58.493Z,23.65
2022-12-24T12:50:00.935Z,18.48
2022-12-24T12:52:52.412Z,21.80
2022-12-24T12:55:36.353Z,19.80
2022-12-24T12:58:10.875Z,20.58
2022-12-24T13:00:40.835Z,19.23
2022-12-24T13:03:52.582Z,20.00
2022-12-24T13:07:06.840Z,18.88
2022-12-24T13:09:46.720Z,16.45
2022-12-24T13:12:16.443Z,18.73
2022-12-24T13:15:21.172Z,17.15
2022-12-24T13:18:05.712Z,19.65
2022-12-24T13:20:37.386Z,19.20
2022-12-24T13:23:15.001Z,21.33
2022-12-24T13:25:44.676Z,26.40
2022-12-24T13:28:22.851Z,24.95
2022-12-24T13:31:16.368Z,26.95
2022-12-24T13:33:42.947Z,26.73
2022-12-24T13:36:11.990Z,25.08
2022-12-24T13:38:44.585Z,23.83
2022-12-24T13:41:38.892Z,20.98
2022-12-24T13:44:07.158Z,21.65
2022-12-24T13:47:09.074Z,20.95
2022-12-24T13:49:53.335Z,20.23
2022-12-24T13:52:26.112Z,21.02
2022-12-24T13:54:58.669Z,20.95
2022-12-24T13:57:42.185Z,21.90
2022-12-24T14:00:21.252Z,21.27
2022-12-24T14:03:07.107Z,26.55
2022-12-24T14:05:36.869Z,26.00
2022-12-24T14:08:09.484Z,25.30
2022-12-24T14:10:40.886Z,23.75
2022-12-24T14:13:39.377Z,26.30
2022-12-24T14:16:12.515Z,26.55
2022-12-24T14:18:42.196Z,30.35
2022-12-24T14:21:17.877Z,29.63
2022-12-24T14:23:54.150Z,26.15
2022-12-24T14:26:24.284Z,26.42
2022-12-24T14:29:03.523Z,29.17
2022-12-24T14:31:30.335Z,28.25
2022-12-24T14:34:13.803Z,30.98
2022-12-24T14:36:45.021Z,30.88
2022-12-24T14:39:22.283Z,30.90
2022-12-24T14:42:24.121Z,36.83
2022-12-24T14:44:59.713Z,32.60
2022-12-24T14:47:35.251Z,34.33
2022-12-24T14:50:25.089Z,44.45
2022-12-24T14:53:06.932Z,40.72
2022-12-24T14:55:43.087Z,41.83
2022-12-24T14:58:27.301Z,42.72
2022-12-24T15:01:26.217Z,46.00
2022-12-24T15:04:09.627Z,49.78
2022-12-24T15:06:57.867Z,39.45
2022-12-24T15:09:30.901Z,38.97
2022-12-24T15:12:01.068Z,48.83
2022-12-24T15:14:30.378Z,44.95
2022-12-24T15:17:03.118Z,42.67
2022-12-24T15:19:36.159Z,39.47
2022-12-24T15:22:08.098Z,36.33
2022-12-24T15:24:43.653Z,38.25
2022-12-24T15:27:19.262Z,38.60
2022-12-24T15:29:48.621Z,39.33
2022-12-24T15:32:18.491Z,42.55
2022-12-24T15:34:53.773Z,35.05
2022-12-24T15:37:24.026Z,41.10
2022-12-24T15:39:53.906Z,34.00
2022-12-24T15:42:22.786Z,37.28
2022-12-24T15:45:12.789Z,36.53
2022-12-24T15:47:47.617Z,36.00
2022-12-24T15:50:22.919Z,37.05
2022-12-24T15:53:18.601Z,39.55
2022-12-24T15:55:46.874Z,41.33
2022-12-24T15:58:23.682Z,46.78
2022-12-24T16:01:06.411Z,52.55
2022-12-24T16:03:33.816Z,55.08
2022-12-24T16:06:19.956Z,45.83
2022-12-24T16:08:47.568Z,49.10
2022-12-24T16:11:28.712Z,42.72
2022-12-24T16:14:02.631Z,38.65
2022-12-24T16:17:09.159Z,41.67
2022-12-24T16:19:44.041Z,53.40
2022-12-24T16:22:31.990Z,52.90
2022-12-24T16:25:23.015Z,48.88
2022-12-24T16:27:51.191Z,50.00
2022-12-24T16:30:19.278Z,51.58
2022-12-24T16:32:48.261Z,51.92
2022-12-24T16:35:29.201Z,51.42
2022-12-24T16:37:56.494Z,47.70
2022-12-24T16:40:54.458Z,42.75
2022-12-24T16:43:39.986Z,40.78
2022-12-24T16:46:07.441Z,42.53
2022-12-24T16:48:38.277Z,46.28
2022-12-24T16:51:06.730Z,56.65
2022-12-24T16:53:55.075Z,75.05
2022-12-24T16:56:22.688Z,80.88
2022-12-24T16:58:49.437Z,72.13
2022-12-24T17:01:16.373Z,64.47
2022-12-24T17:03:43.597Z,61.97
2022-12-24T17:06:10.431Z,67.13
2022-12-24T17:08:37.266Z,60.08
2022-12-24T17:11:04.147Z,47.47
2022-12-24T17:13:31.151Z,41.95
2022-12-24T17:15:57.977Z,38.03
2022-12-24T17:18:27.709Z,42.47
2022-12-24T17:20:59.807Z,37.20
2022-12-24T17:23:27.292Z,43.08
2022-12-24T17:25:54.052Z,242.45
2022-12-24T17:28:22.126Z,43.65
2022-12-24T17:30:48.800Z,34.83
2022-12-24T17:33:15.754Z,32.13
2022-12-24T17:35:43.487Z,32.53
2022-12-24T17:38:10.460Z,34.88
2022-12-24T17:40:38.812Z,34.95
2022-12-24T17:43:05.813Z,34.33
2022-12-24T17:45:32.500Z,42.50
2022-12-24T17:47:59.307Z,51.05
2022-12-24T17:50:26.069Z,42.92
2022-12-24T17:52:52.879Z,40.50
2022-12-24T17:55:19.682Z,33.28
2022-12-24T17:57:46.427Z,38.60
2022-12-24T18:00:13.979Z,41.30
2022-12-24T18:02:41.217Z,42.38
2022-12-24T18:05:08.425Z,63.67
2022-12-24T18:07:35.348Z,72.82
2022-12-24T18:10:02.176Z,73.95
2022-12-24T18:12:30.223Z,67.78
2022-12-24T18:14:57.221Z,51.20
2022-12-24T18:17:24.161Z,44.13
2022-12-24T18:19:52.281Z,44.78
2022-12-24T18:22:19.108Z,42.08
2022-12-24T18:24:46.029Z,46.42
2022-12-24T18:27:12.844Z,47.10
2022-12-24T18:29:42.498Z,44.38
2022-12-24T18:32:09.373Z,43.03
2022-12-24T18:34:36.100Z,45.72
2022-12-24T18:37:02.914Z,43.33
2022-12-24T18:39:29.675Z,42.95
2022-12-24T18:41:57.904Z,42.63
2022-12-24T18:44:25.764Z,44.08
2022-12-24T18:46:53.108Z,42.05
2022-12-24T18:49:20.092Z,46.72
2022-12-24T18:51:47.073Z,48.15
2022-12-24T18:54:14.036Z,45.45
2022-12-24T18:56:46.179Z,48.38
2022-12-24T18:59:12.821Z,43.83
2022-12-24T19:01:39.810Z,53.38
2022-12-24T19:04:06.510Z,49.17
2022-12-24T19:06:33.375Z,45.35
2022-12-24T19:09:01.546Z,48.45
2022-12-24T19:11:31.685Z,53.53
2022-12-24T19:13:58.733Z,51.15
2022-12-24T19:16:26.263Z,50.63
2022-12-24T19:18:53.308Z,56.15
2022-12-24T19:21:21.132Z,55.50
2022-12-24T19:23:48.954Z,55.53
2022-12-24T19:26:17.735Z,54.50
2022-12-24T19:28:45.541Z,53.17
2022-12-24T19:31:21.760Z,49.28
2022-12-24T19:33:54.700Z,47.13
2022-12-24T19:36:29.684Z,48.17
2022-12-24T19:38:57.471Z,47.53
2022-12-24T19:41:26.821Z,43.00
2022-12-24T19:43:59.233Z,36.80
2022-12-24T19:46:31.787Z,39.97
2022-12-24T19:49:01.219Z,42.65
2022-12-24T19:51:29.078Z,40.28
2022-12-24T19:53:57.744Z,28.63
2022-12-24T19:56:26.278Z,27.13
2022-12-24T19:58:52.962Z,28.42
2022-12-24T20:01:22.324Z,24.83
2022-12-24T20:03:50.244Z,24.23
2022-12-24T20:06:19.151Z,22.92
2022-12-24T20:08:46.335Z,24.40
2022-12-24T20:11:17.031Z,25.75
2022-12-24T20:13:44.374Z,25.27
2022-12-24T20:16:15.102Z,31.45
2022-12-24T20:18:42.059Z,28.55
2022-12-24T20:21:10.959Z,27.13
2022-12-24T20:23:39.122Z,28.58
2022-12-24T20:26:07.229Z,23.95
2022-12-24T20:28:36.513Z,24.95
2022-12-24T20:31:14.272Z,21.73
2022-12-24T20:33:42.117Z,19.50
2022-12-24T20:36:10.000Z,23.00
2022-12-24T20:38:38.086Z,28.92
2022-12-24T20:41:09.946Z,32.72
2022-12-24T20:43:47.414Z,30.30
2022-12-24T20:46:16.187Z,41.15
2022-12-24T20:48:43.090Z,42.40
2022-12-24T20:51:19.179Z,40.33
2022-12-24T20:53:50.219Z,38.63
2022-12-24T20:56:17.958Z,40.03
2022-12-24T20:58:45.542Z,40.58
2022-12-24T21:01:16.777Z,41.28
2022-12-24T21:03:43.506Z,42.10
2022-12-24T21:06:10.530Z,41.22
2022-12-24T21:08:37.668Z,35.65
2022-12-24T21:11:23.444Z,34.95
2022-12-24T21:13:50.349Z,34.90
2022-12-24T21:16:17.041Z,34.00
2022-12-24T21:18:43.732Z,22.55
2022-12-24T21:21:10.908Z,21.38
2022-12-24T21:23:37.619Z,21.05
2022-12-24T21:26:05.163Z,19.27
2022-12-24T21:28:33.371Z,17.25
2022-12-24T21:31:00.380Z,17.95
2022-12-24T21:33:27.248Z,19.55
2022-12-24T21:36:00.180Z,17.65
2022-12-24T21:38:27.631Z,17.00
2022-12-24T21:41:09.306Z,14.88
2022-12-24T21:43:37.024Z,14.85
2022-12-24T21:46:14.828Z,15.75
2022-12-24T21:49:00.226Z,14.40
2022-12-24T21:51:28.204Z,15.23
2022-12-24T21:54:14.097Z,14.75
2022-12-24T21:57:00.026Z,11.30
2022-12-24T21:59:27.523Z,11.13
2022-12-24T22:01:54.996Z,14.40
2022-12-24T22:04:22.569Z,12.45
2022-12-24T22:07:08.305Z,10.38
2022-12-24T22:09:54.314Z,12.55
2022-12-24T22:12:20.943Z,12.02
2022-12-24T22:14:47.819Z,11.48
2022-12-24T22:17:18.182Z,12.43
2022-12-24T22:19:47.911Z,10.77
2022-12-24T22:22:14.883Z,10.60
2022-12-24T22:24:41.683Z,11.18
2022-12-24T22:27:08.411Z,12.07
2022-12-24T22:29:35.168Z,13.05
2022-12-24T22:32:01.929Z,13.32
2022-12-24T22:34:28.703Z,11.10
2022-12-24T22:36:55.427Z,11.18
2022-12-24T22:39:22.456Z,10.23
2022-12-24T22:41:59.350Z,11.05
2022-12-24T22:44:26.191Z,10.95
2022-12-24T22:46:54.600Z,13.35
2022-12-24T22:49:22.850Z,10.27
2022-12-24T22:51:52.252Z,10.00
2022-12-24T22:54:19.498Z,11.32
2022-12-24T22:56:46.653Z,11.18
2022-12-24T22:59:14.051Z,10.32
2022-12-24T23:01:44.039Z,10.52
2022-12-24T23:04:11.902Z,11.40
2022-12-24T23:06:39.161Z,12.65
2022-12-24T23:09:08.515Z,15.95
2022-12-24T23:11:36.252Z,18.52
2022-12-24T23:14:22.051Z,20.95
2022-12-24T23:16:48.933Z,22.42
2022-12-24T23:19:15.740Z,19.33
2022-12-24T23:21:42.731Z,20.77
2022-12-24T23:24:11.424Z,20.45
2022-12-24T23:26:38.766Z,18.80
2022-12-24T23:29:06.681Z,11.32
2022-12-24T23:31:35.136Z,11.68
2022-12-24T23:34:02.376Z,14.52
2022-12-24T23:36:29.419Z,8.88
2022-12-24T23:38:57.855Z,11.40
2022-12-24T23:41:25.147Z,9.35
2022-12-24T23:43:52.023Z,8.07
2022-12-24T23:46:20.379Z,7.85
2022-12-24T23:48:47.638Z,7.65
2022-12-24T23:51:17.735Z,7.15
2022-12-24T23:53:44.792Z,7.22
2022-12-24T23:56:12.557Z,7.15
2022-12-24T23:58:41.243Z,10.38
